sensor_id;sensor_type;location;lat;lon;timestamp;P1;durP1;ratioP1;P2;durP2;ratioP2
18140;SDS011;9196;49.194;12.526;2023-11-19T00:00:44;56.30;;;19.95;;
18140;SDS011;9196;49.194;12.526;2023-11-19T00:03:12;31.40;;;11.25;;
18140;SDS011;9196;49.194;12.526;2023-11-19T00:05:39;16.25;;;6.85;;
18140;SDS011;9196;49.194;12.526;2023-11-19T00:08:07;7.93;;;3.33;;
18140;SDS011;9196;49.194;12.526;2023-11-19T00:10:34;20.98;;;7.40;;
18140;SDS011;9196;49.194;12.526;2023-11-19T00:13:02;65.25;;;19.08;;
18140;SDS011;9196;49.194;12.526;2023-11-19T00:15:29;66.40;;;22.00;;
18140;SDS011;9196;49.194;12.526;2023-11-19T00:17:57;28.05;;;10.68;;
18140;SDS011;9196;49.194;12.526;2023-11-19T00:20:24;21.23;;;8.00;;
18140;SDS011;9196;49.194;12.526;2023-11-19T00:22:51;16.98;;;8.35;;
18140;SDS011;9196;49.194;12.526;2023-11-19T00:25:19;6.45;;;4.25;;
18140;SDS011;9196;49.194;12.526;2023-11-19T00:27:48;3.95;;;3.63;;
18140;SDS011;9196;49.194;12.526;2023-11-19T00:30:20;14.00;;;8.13;;
18140;SDS011;9196;49.194;12.526;2023-11-19T00:32:48;43.05;;;13.48;;
18140;SDS011;9196;49.194;12.526;2023-11-19T00:35:15;28.67;;;10.02;;
18140;SDS011;9196;49.194;12.526;2023-11-19T00:37:42;8.77;;;4.47;;
18140;SDS011;9196;49.194;12.526;2023-11-19T00:40:11;17.45;;;7.60;;
18140;SDS011;9196;49.194;12.526;2023-11-19T00:42:37;38.22;;;14.35;;
18140;SDS011;9196;49.194;12.526;2023-11-19T00:45:07;39.83;;;14.18;;
18140;SDS011;9196;49.194;12.526;2023-11-19T00:47:37;41.22;;;12.80;;
18140;SDS011;9196;49.194;12.526;2023-11-19T00:50:04;71.88;;;23.27;;
18140;SDS011;9196;49.194;12.526;2023-11-19T00:52:34;48.00;;;16.05;;
18140;SDS011;9196;49.194;12.526;2023-11-19T00:55:06;157.43;;;44.35;;
18140;SDS011;9196;49.194;12.526;2023-11-19T00:57:37;23.85;;;9.25;;
18140;SDS011;9196;49.194;12.526;2023-11-19T01:00:08;3.03;;;2.80;;
18140;SDS011;9196;49.194;12.526;2023-11-19T01:02:47;30.33;;;10.05;;
18140;SDS011;9196;49.194;12.526;2023-11-19T01:05:20;39.50;;;15.55;;
18140;SDS011;9196;49.194;12.526;2023-11-19T01:07:47;7.45;;;4.55;;
18140;SDS011;9196;49.194;12.526;2023-11-19T01:10:15;3.45;;;2.38;;
18140;SDS011;9196;49.194;12.526;2023-11-19T01:12:43;2.05;;;1.88;;
18140;SDS011;9196;49.194;12.526;2023-11-19T01:15:10;21.60;;;9.85;;
18140;SDS011;9196;49.194;12.526;2023-11-19T01:17:38;6.70;;;3.65;;
18140;SDS011;9196;49.194;12.526;2023-11-19T01:20:07;2.72;;;2.55;;
18140;SDS011;9196;49.194;12.526;2023-11-19T01:22:38;20.98;;;10.68;;
18140;SDS011;9196;49.194;12.526;2023-11-19T01:25:05;2.50;;;2.13;;
18140;SDS011;9196;49.194;12.526;2023-11-19T01:27:33;2.47;;;2.38;;
18140;SDS011;9196;49.194;12.526;2023-11-19T01:30:00;7.88;;;5.30;;
18140;SDS011;9196;49.194;12.526;2023-11-19T01:32:28;8.32;;;4.93;;
18140;SDS011;9196;49.194;12.526;2023-11-19T01:34:55;16.58;;;7.10;;
18140;SDS011;9196;49.194;12.526;2023-11-19T01:37:23;10.48;;;5.20;;
18140;SDS011;9196;49.194;12.526;2023-11-19T01:39:50;3.42;;;3.22;;
18140;SDS011;9196;49.194;12.526;2023-11-19T01:42:17;3.10;;;2.90;;
18140;SDS011;9196;49.194;12.526;2023-11-19T01:44:54;2.85;;;2.65;;
18140;SDS011;9196;49.194;12.526;2023-11-19T01:47:23;2.58;;;2.47;;
18140;SDS011;9196;49.194;12.526;2023-11-19T01:49:51;2.17;;;2.08;;
18140;SDS011;9196;49.194;12.526;2023-11-19T01:52:18;6.28;;;4.20;;
18140;SDS011;9196;49.194;12.526;2023-11-19T01:54:47;1.20;;;1.20;;
18140;SDS011;9196;49.194;12.526;2023-11-19T01:57:14;1.63;;;1.52;;
18140;SDS011;9196;49.194;12.526;2023-11-19T01:59:41;1.58;;;1.48;;
18140;SDS011;9196;49.194;12.526;2023-11-19T02:02:09;1.85;;;1.75;;
18140;SDS011;9196;49.194;12.526;2023-11-19T02:04:37;3.03;;;2.78;;
18140;SDS011;9196;49.194;12.526;2023-11-19T02:07:06;5.68;;;4.03;;
18140;SDS011;9196;49.194;12.526;2023-11-19T02:09:34;1.80;;;1.70;;
18140;SDS011;9196;49.194;12.526;2023-11-19T02:12:02;1.50;;;1.40;;
18140;SDS011;9196;49.194;12.526;2023-11-19T02:14:29;6.35;;;4.80;;
18140;SDS011;9196;49.194;12.526;2023-11-19T02:16:56;8.68;;;6.22;;
18140;SDS011;9196;49.194;12.526;2023-11-19T02:19:23;4.20;;;3.17;;
18140;SDS011;9196;49.194;12.526;2023-11-19T02:21:50;7.70;;;4.95;;
18140;SDS011;9196;49.194;12.526;2023-11-19T02:24:16;2.80;;;2.60;;
18140;SDS011;9196;49.194;12.526;2023-11-19T02:26:50;4.03;;;3.20;;
18140;SDS011;9196;49.194;12.526;2023-11-19T02:29:23;9.07;;;5.05;;
18140;SDS011;9196;49.194;12.526;2023-11-19T02:31:50;10.05;;;6.05;;
18140;SDS011;9196;49.194;12.526;2023-11-19T02:34:17;5.78;;;4.40;;
18140;SDS011;9196;49.194;12.526;2023-11-19T02:36:43;10.60;;;7.15;;
18140;SDS011;9196;49.194;12.526;2023-11-19T02:39:12;10.25;;;6.32;;
18140;SDS011;9196;49.194;12.526;2023-11-19T02:41:40;3.05;;;2.72;;
18140;SDS011;9196;49.194;12.526;2023-11-19T02:44:06;1.30;;;1.30;;
18140;SDS011;9196;49.194;12.526;2023-11-19T02:46:35;1.55;;;1.55;;
18140;SDS011;9196;49.194;12.526;2023-11-19T02:49:01;1.23;;;1.13;;
18140;SDS011;9196;49.194;12.526;2023-11-19T02:51:28;0.80;;;0.80;;
18140;SDS011;9196;49.194;12.526;2023-11-19T02:53:55;0.80;;;0.80;;
18140;SDS011;9196;49.194;12.526;2023-11-19T02:56:23;0.80;;;0.80;;
18140;SDS011;9196;49.194;12.526;2023-11-19T02:58:51;0.98;;;0.98;;
18140;SDS011;9196;49.194;12.526;2023-11-19T03:01:22;0.90;;;0.90;;
18140;SDS011;9196;49.194;12.526;2023-11-19T03:03:56;0.70;;;0.70;;
18140;SDS011;9196;49.194;12.526;2023-11-19T03:06:23;0.80;;;0.80;;
18140;SDS011;9196;49.194;12.526;2023-11-19T03:08:50;0.60;;;0.60;;
18140;SDS011;9196;49.194;12.526;2023-11-19T03:11:17;0.70;;;0.70;;
18140;SDS011;9196;49.194;12.526;2023-11-19T03:13:44;0.68;;;0.68;;
18140;SDS011;9196;49.194;12.526;2023-11-19T03:16:11;0.82;;;0.82;;
18140;SDS011;9196;49.194;12.526;2023-11-19T03:18:38;4.18;;;2.15;;
18140;SDS011;9196;49.194;12.526;2023-11-19T03:21:07;3.35;;;2.78;;
18140;SDS011;9196;49.194;12.526;2023-11-19T03:23:34;1.75;;;1.65;;
18140;SDS011;9196;49.194;12.526;2023-11-19T03:26:01;2.00;;;1.90;;
18140;SDS011;9196;49.194;12.526;2023-11-19T03:28:30;1.30;;;1.30;;
18140;SDS011;9196;49.194;12.526;2023-11-19T03:30:57;0.90;;;0.90;;
18140;SDS011;9196;49.194;12.526;2023-11-19T03:33:24;0.88;;;0.88;;
18140;SDS011;9196;49.194;12.526;2023-11-19T03:35:52;0.75;;;0.75;;
18140;SDS011;9196;49.194;12.526;2023-11-19T03:38:22;0.80;;;0.80;;
18140;SDS011;9196;49.194;12.526;2023-11-19T03:40:49;0.80;;;0.80;;
18140;SDS011;9196;49.194;12.526;2023-11-19T03:43:16;0.80;;;0.80;;
18140;SDS011;9196;49.194;12.526;2023-11-19T03:45:44;0.70;;;0.70;;
18140;SDS011;9196;49.194;12.526;2023-11-19T03:48:11;0.90;;;0.90;;
18140;SDS011;9196;49.194;12.526;2023-11-19T03:50:38;0.70;;;0.70;;
18140;SDS011;9196;49.194;12.526;2023-11-19T03:53:05;0.70;;;0.70;;
18140;SDS011;9196;49.194;12.526;2023-11-19T03:55:33;0.70;;;0.70;;
18140;SDS011;9196;49.194;12.526;2023-11-19T03:58:00;1.80;;;0.90;;
18140;SDS011;9196;49.194;12.526;2023-11-19T04:00:27;0.80;;;0.80;;
18140;SDS011;9196;49.194;12.526;2023-11-19T04:02:53;9.25;;;6.10;;
18140;SDS011;9196;49.194;12.526;2023-11-19T04:05:20;10.05;;;5.97;;
18140;SDS011;9196;49.194;12.526;2023-11-19T04:07:47;10.70;;;5.22;;
18140;SDS011;9196;49.194;12.526;2023-11-19T04:10:14;7.45;;;4.88;;
18140;SDS011;9196;49.194;12.526;2023-11-19T04:12:42;4.30;;;3.67;;
18140;SDS011;9196;49.194;12.526;2023-11-19T04:15:10;6.40;;;3.15;;
18140;SDS011;9196;49.194;12.526;2023-11-19T04:17:38;1.10;;;1.10;;
18140;SDS011;9196;49.194;12.526;2023-11-19T04:20:05;0.70;;;0.70;;
18140;SDS011;9196;49.194;12.526;2023-11-19T04:22:35;0.77;;;0.77;;
18140;SDS011;9196;49.194;12.526;2023-11-19T04:25:02;1.08;;;0.98;;
18140;SDS011;9196;49.194;12.526;2023-11-19T04:27:30;0.80;;;0.80;;
18140;SDS011;9196;49.194;12.526;2023-11-19T04:29:58;1.58;;;0.80;;
18140;SDS011;9196;49.194;12.526;2023-11-19T04:32:26;0.90;;;0.90;;
18140;SDS011;9196;49.194;12.526;2023-11-19T04:34:54;0.95;;;0.95;;
18140;SDS011;9196;49.194;12.526;2023-11-19T04:37:21;0.80;;;0.80;;
18140;SDS011;9196;49.194;12.526;2023-11-19T04:39:47;0.90;;;0.90;;
18140;SDS011;9196;49.194;12.526;2023-11-19T04:42:14;0.88;;;0.88;;
18140;SDS011;9196;49.194;12.526;2023-11-19T04:44:42;0.80;;;0.80;;
18140;SDS011;9196;49.194;12.526;2023-11-19T04:47:10;0.70;;;0.70;;
18140;SDS011;9196;49.194;12.526;2023-11-19T04:49:39;1.40;;;1.40;;
18140;SDS011;9196;49.194;12.526;2023-11-19T04:52:07;1.02;;;1.02;;
18140;SDS011;9196;49.194;12.526;2023-11-19T04:54:34;1.55;;;1.35;;
18140;SDS011;9196;49.194;12.526;2023-11-19T04:57:01;0.90;;;0.90;;
18140;SDS011;9196;49.194;12.526;2023-11-19T04:59:28;0.70;;;0.70;;
18140;SDS011;9196;49.194;12.526;2023-11-19T05:01:55;1.60;;;1.50;;
18140;SDS011;9196;49.194;12.526;2023-11-19T05:04:24;1.50;;;1.40;;
18140;SDS011;9196;49.194;12.526;2023-11-19T05:06:51;0.90;;;0.90;;
18140;SDS011;9196;49.194;12.526;2023-11-19T05:09:18;0.60;;;0.60;;
18140;SDS011;9196;49.194;12.526;2023-11-19T05:11:45;0.70;;;0.70;;
18140;SDS011;9196;49.194;12.526;2023-11-19T05:14:12;0.60;;;0.60;;
18140;SDS011;9196;49.194;12.526;2023-11-19T05:16:39;0.60;;;0.60;;
18140;SDS011;9196;49.194;12.526;2023-11-19T05:19:06;0.70;;;0.70;;
18140;SDS011;9196;49.194;12.526;2023-11-19T05:21:35;0.70;;;0.70;;
18140;SDS011;9196;49.194;12.526;2023-11-19T05:24:02;0.60;;;0.60;;
18140;SDS011;9196;49.194;12.526;2023-11-19T05:26:30;0.75;;;0.75;;
18140;SDS011;9196;49.194;12.526;2023-11-19T05:28:57;1.52;;;1.52;;
18140;SDS011;9196;49.194;12.526;2023-11-19T05:31:23;0.90;;;0.90;;
18140;SDS011;9196;49.194;12.526;2023-11-19T05:33:50;0.95;;;0.95;;
18140;SDS011;9196;49.194;12.526;2023-11-19T05:36:17;0.70;;;0.70;;
18140;SDS011;9196;49.194;12.526;2023-11-19T05:38:45;0.70;;;0.70;;
18140;SDS011;9196;49.194;12.526;2023-11-19T05:41:12;7.70;;;5.30;;
18140;SDS011;9196;49.194;12.526;2023-11-19T05:43:39;2.65;;;2.45;;
18140;SDS011;9196;49.194;12.526;2023-11-19T05:46:06;1.02;;;1.02;;
18140;SDS011;9196;49.194;12.526;2023-11-19T05:48:34;0.80;;;0.80;;
18140;SDS011;9196;49.194;12.526;2023-11-19T05:51:00;0.73;;;0.73;;
18140;SDS011;9196;49.194;12.526;2023-11-19T05:53:28;1.02;;;0.70;;
18140;SDS011;9196;49.194;12.526;2023-11-19T05:55:56;0.80;;;0.80;;
18140;SDS011;9196;49.194;12.526;2023-11-19T05:58:23;0.95;;;0.95;;
18140;SDS011;9196;49.194;12.526;2023-11-19T06:00:54;1.60;;;1.50;;
18140;SDS011;9196;49.194;12.526;2023-11-19T06:03:21;1.40;;;1.40;;
18140;SDS011;9196;49.194;12.526;2023-11-19T06:05:48;1.00;;;1.00;;
18140;SDS011;9196;49.194;12.526;2023-11-19T06:08:15;1.00;;;1.00;;
18140;SDS011;9196;49.194;12.526;2023-11-19T06:10:42;1.20;;;1.10;;
18140;SDS011;9196;49.194;12.526;2023-11-19T06:13:12;2.13;;;1.50;;
18140;SDS011;9196;49.194;12.526;2023-11-19T06:15:40;4.47;;;3.65;;
18140;SDS011;9196;49.194;12.526;2023-11-19T06:18:07;2.70;;;2.53;;
18140;SDS011;9196;49.194;12.526;2023-11-19T06:20:34;2.00;;;1.90;;
18140;SDS011;9196;49.194;12.526;2023-11-19T06:23:00;1.30;;;1.30;;
18140;SDS011;9196;49.194;12.526;2023-11-19T06:25:27;1.38;;;1.33;;
18140;SDS011;9196;49.194;12.526;2023-11-19T06:27:54;2.50;;;2.30;;
18140;SDS011;9196;49.194;12.526;2023-11-19T06:30:23;2.13;;;1.92;;
18140;SDS011;9196;49.194;12.526;2023-11-19T06:32:51;3.22;;;2.10;;
18140;SDS011;9196;49.194;12.526;2023-11-19T06:35:17;1.73;;;1.63;;
18140;SDS011;9196;49.194;12.526;2023-11-19T06:37:44;1.20;;;1.20;;
18140;SDS011;9196;49.194;12.526;2023-11-19T06:40:11;1.50;;;1.40;;
18140;SDS011;9196;49.194;12.526;2023-11-19T06:42:40;1.30;;;1.30;;
18140;SDS011;9196;49.194;12.526;2023-11-19T06:45:07;1.20;;;1.20;;
18140;SDS011;9196;49.194;12.526;2023-11-19T06:47:36;1.45;;;1.35;;
18140;SDS011;9196;49.194;12.526;2023-11-19T06:50:03;1.70;;;1.60;;
18140;SDS011;9196;49.194;12.526;2023-11-19T06:52:30;2.03;;;1.90;;
18140;SDS011;9196;49.194;12.526;2023-11-19T06:54:57;2.67;;;2.55;;
18140;SDS011;9196;49.194;12.526;2023-11-19T06:57:24;2.60;;;2.50;;
18140;SDS011;9196;49.194;12.526;2023-11-19T06:59:51;1.83;;;1.83;;
18140;SDS011;9196;49.194;12.526;2023-11-19T07:02:18;1.60;;;1.60;;
18140;SDS011;9196;49.194;12.526;2023-11-19T07:04:46;1.88;;;1.88;;
18140;SDS011;9196;49.194;12.526;2023-11-19T07:07:13;3.83;;;3.53;;
18140;SDS011;9196;49.194;12.526;2023-11-19T07:09:40;2.20;;;2.10;;
18140;SDS011;9196;49.194;12.526;2023-11-19T07:12:07;2.33;;;2.33;;
18140;SDS011;9196;49.194;12.526;2023-11-19T07:14:34;2.42;;;2.33;;
18140;SDS011;9196;49.194;12.526;2023-11-19T07:17:01;2.22;;;2.13;;
18140;SDS011;9196;49.194;12.526;2023-11-19T07:19:28;2.25;;;2.15;;
18140;SDS011;9196;49.194;12.526;2023-11-19T07:21:56;2.72;;;2.63;;
18140;SDS011;9196;49.194;12.526;2023-11-19T07:24:23;2.40;;;2.30;;
18140;SDS011;9196;49.194;12.526;2023-11-19T07:26:50;2.50;;;2.40;;
18140;SDS011;9196;49.194;12.526;2023-11-19T07:29:17;2.38;;;2.28;;
18140;SDS011;9196;49.194;12.526;2023-11-19T07:31:44;2.53;;;2.42;;
18140;SDS011;9196;49.194;12.526;2023-11-19T07:34:10;2.50;;;2.40;;
18140;SDS011;9196;49.194;12.526;2023-11-19T07:36:39;3.42;;;3.22;;
18140;SDS011;9196;49.194;12.526;2023-11-19T07:39:07;7.70;;;6.95;;
18140;SDS011;9196;49.194;12.526;2023-11-19T07:41:34;5.60;;;5.10;;
18140;SDS011;9196;49.194;12.526;2023-11-19T07:44:00;4.20;;;3.35;;
18140;SDS011;9196;49.194;12.526;2023-11-19T07:46:27;3.58;;;3.38;;
18140;SDS011;9196;49.194;12.526;2023-11-19T07:48:54;2.53;;;2.42;;
18140;SDS011;9196;49.194;12.526;2023-11-19T07:51:21;2.42;;;2.30;;
18140;SDS011;9196;49.194;12.526;2023-11-19T07:53:47;6.13;;;2.75;;
18140;SDS011;9196;49.194;12.526;2023-11-19T07:56:15;3.75;;;3.42;;
18140;SDS011;9196;49.194;12.526;2023-11-19T07:58:42;6.32;;;5.72;;
18140;SDS011;9196;49.194;12.526;2023-11-19T08:01:09;6.82;;;6.20;;
18140;SDS011;9196;49.194;12.526;2023-11-19T08:03:36;10.43;;;9.40;;
18140;SDS011;9196;49.194;12.526;2023-11-19T08:06:03;13.25;;;11.60;;
18140;SDS011;9196;49.194;12.526;2023-11-19T08:08:30;17.73;;;15.60;;
18140;SDS011;9196;49.194;12.526;2023-11-19T08:10:58;12.75;;;11.52;;
18140;SDS011;9196;49.194;12.526;2023-11-19T08:13:26;27.42;;;19.17;;
18140;SDS011;9196;49.194;12.526;2023-11-19T08:15:53;22.00;;;15.57;;
18140;SDS011;9196;49.194;12.526;2023-11-19T08:18:20;16.13;;;12.57;;
18140;SDS011;9196;49.194;12.526;2023-11-19T08:20:47;16.45;;;11.18;;
18140;SDS011;9196;49.194;12.526;2023-11-19T08:23:17;10.35;;;8.43;;
18140;SDS011;9196;49.194;12.526;2023-11-19T08:25:44;11.75;;;9.43;;
18140;SDS011;9196;49.194;12.526;2023-11-19T08:28:11;10.35;;;7.25;;
18140;SDS011;9196;49.194;12.526;2023-11-19T08:30:39;4.40;;;4.07;;
18140;SDS011;9196;49.194;12.526;2023-11-19T08:33:06;5.20;;;4.18;;
18140;SDS011;9196;49.194;12.526;2023-11-19T08:35:33;4.85;;;4.13;;
18140;SDS011;9196;49.194;12.526;2023-11-19T08:38:01;3.95;;;3.65;;
18140;SDS011;9196;49.194;12.526;2023-11-19T08:40:27;3.47;;;3.30;;
18140;SDS011;9196;49.194;12.526;2023-11-19T08:42:55;17.90;;;12.15;;
18140;SDS011;9196;49.194;12.526;2023-11-19T08:45:22;18.33;;;13.25;;
18140;SDS011;9196;49.194;12.526;2023-11-19T08:47:50;16.73;;;12.23;;
18140;SDS011;9196;49.194;12.526;2023-11-19T08:50:17;17.77;;;14.63;;
18140;SDS011;9196;49.194;12.526;2023-11-19T08:52:43;15.18;;;12.23;;
18140;SDS011;9196;49.194;12.526;2023-11-19T08:55:10;18.90;;;15.88;;
18140;SDS011;9196;49.194;12.526;2023-11-19T08:57:38;26.27;;;19.05;;
18140;SDS011;9196;49.194;12.526;2023-11-19T09:00:05;31.58;;;20.00;;
18140;SDS011;9196;49.194;12.526;2023-11-19T09:02:33;14.88;;;11.82;;
18140;SDS011;9196;49.194;12.526;2023-11-19T09:05:01;11.70;;;9.55;;
18140;SDS011;9196;49.194;12.526;2023-11-19T09:07:28;7.82;;;5.40;;
18140;SDS011;9196;49.194;12.526;2023-11-19T09:09:55;6.95;;;6.25;;
18140;SDS011;9196;49.194;12.526;2023-11-19T09:12:22;8.07;;;6.68;;
18140;SDS011;9196;49.194;12.526;2023-11-19T09:14:49;5.07;;;4.03;;
18140;SDS011;9196;49.194;12.526;2023-11-19T09:17:15;5.03;;;4.53;;
18140;SDS011;9196;49.194;12.526;2023-11-19T09:19:43;15.80;;;6.75;;
18140;SDS011;9196;49.194;12.526;2023-11-19T09:22:11;2.85;;;2.65;;
18140;SDS011;9196;49.194;12.526;2023-11-19T09:24:37;1.65;;;1.55;;
18140;SDS011;9196;49.194;12.526;2023-11-19T09:27:04;1.90;;;1.80;;
18140;SDS011;9196;49.194;12.526;2023-11-19T09:29:31;2.15;;;2.05;;
18140;SDS011;9196;49.194;12.526;2023-11-19T09:31:58;3.35;;;3.15;;
18140;SDS011;9196;49.194;12.526;2023-11-19T09:34:25;2.13;;;2.03;;
18140;SDS011;9196;49.194;12.526;2023-11-19T09:36:53;2.10;;;2.00;;
18140;SDS011;9196;49.194;12.526;2023-11-19T09:39:21;2.15;;;2.00;;
18140;SDS011;9196;49.194;12.526;2023-11-19T09:41:48;1.92;;;1.83;;
18140;SDS011;9196;49.194;12.526;2023-11-19T09:44:14;2.60;;;2.40;;
18140;SDS011;9196;49.194;12.526;2023-11-19T09:46:43;3.45;;;2.50;;
18140;SDS011;9196;49.194;12.526;2023-11-19T09:49:11;2.10;;;2.00;;
18140;SDS011;9196;49.194;12.526;2023-11-19T09:51:39;3.72;;;2.70;;
18140;SDS011;9196;49.194;12.526;2023-11-19T09:54:06;2.75;;;2.55;;
18140;SDS011;9196;49.194;12.526;2023-11-19T09:56:35;2.33;;;2.22;;
18140;SDS011;9196;49.194;12.526;2023-11-19T09:59:05;2.90;;;2.70;;
18140;SDS011;9196;49.194;12.526;2023-11-19T10:01:31;2.25;;;2.15;;
18140;SDS011;9196;49.194;12.526;2023-11-19T10:04:00;2.40;;;2.10;;
18140;SDS011;9196;49.194;12.526;2023-11-19T10:06:28;2.30;;;2.20;;
18140;SDS011;9196;49.194;12.526;2023-11-19T10:08:55;3.30;;;3.10;;
18140;SDS011;9196;49.194;12.526;2023-11-19T10:11:22;3.03;;;2.92;;
18140;SDS011;9196;49.194;12.526;2023-11-19T10:13:51;4.32;;;3.95;;
18140;SDS011;9196;49.194;12.526;2023-11-19T10:16:19;3.72;;;3.42;;
18140;SDS011;9196;49.194;12.526;2023-11-19T10:18:46;3.90;;;3.70;;
18140;SDS011;9196;49.194;12.526;2023-11-19T10:21:16;3.50;;;3.30;;
18140;SDS011;9196;49.194;12.526;2023-11-19T10:23:48;4.20;;;3.90;;
18140;SDS011;9196;49.194;12.526;2023-11-19T10:26:17;3.88;;;3.63;;
18140;SDS011;9196;49.194;12.526;2023-11-19T10:28:43;4.75;;;4.22;;
18140;SDS011;9196;49.194;12.526;2023-11-19T10:31:13;3.53;;;3.33;;
18140;SDS011;9196;49.194;12.526;2023-11-19T10:33:40;5.75;;;4.15;;
18140;SDS011;9196;49.194;12.526;2023-11-19T10:36:10;5.30;;;4.90;;
18140;SDS011;9196;49.194;12.526;2023-11-19T10:38:38;4.95;;;4.53;;
18140;SDS011;9196;49.194;12.526;2023-11-19T10:41:05;4.07;;;3.88;;
18140;SDS011;9196;49.194;12.526;2023-11-19T10:43:42;4.50;;;4.10;;
18140;SDS011;9196;49.194;12.526;2023-11-19T10:46:10;4.03;;;3.70;;
18140;SDS011;9196;49.194;12.526;2023-11-19T10:48:39;5.30;;;4.87;;
18140;SDS011;9196;49.194;12.526;2023-11-19T10:51:07;3.58;;;3.28;;
18140;SDS011;9196;49.194;12.526;2023-11-19T10:53:35;3.85;;;3.65;;
18140;SDS011;9196;49.194;12.526;2023-11-19T10:56:05;3.30;;;3.15;;
18140;SDS011;9196;49.194;12.526;2023-11-19T10:58:36;3.50;;;2.70;;
18140;SDS011;9196;49.194;12.526;2023-11-19T11:01:11;2.63;;;2.53;;
18140;SDS011;9196;49.194;12.526;2023-11-19T11:03:45;2.90;;;2.80;;
18140;SDS011;9196;49.194;12.526;2023-11-19T11:06:13;2.37;;;2.27;;
18140;SDS011;9196;49.194;12.526;2023-11-19T11:08:40;11.37;;;7.00;;
18140;SDS011;9196;49.194;12.526;2023-11-19T11:11:08;10.43;;;5.72;;
18140;SDS011;9196;49.194;12.526;2023-11-19T11:13:38;10.90;;;5.43;;
18140;SDS011;9196;49.194;12.526;2023-11-19T11:16:08;3.10;;;2.90;;
18140;SDS011;9196;49.194;12.526;2023-11-19T11:18:36;9.02;;;6.72;;
18140;SDS011;9196;49.194;12.526;2023-11-19T11:21:04;3.47;;;3.27;;
18140;SDS011;9196;49.194;12.526;2023-11-19T11:23:47;3.30;;;3.10;;
18140;SDS011;9196;49.194;12.526;2023-11-19T11:26:38;3.40;;;3.20;;
18140;SDS011;9196;49.194;12.526;2023-11-19T11:29:20;6.20;;;2.80;;
18140;SDS011;9196;49.194;12.526;2023-11-19T11:31:54;2.65;;;2.50;;
18140;SDS011;9196;49.194;12.526;2023-11-19T11:34:41;3.27;;;3.07;;
18140;SDS011;9196;49.194;12.526;2023-11-19T11:37:24;2.90;;;2.70;;
18140;SDS011;9196;49.194;12.526;2023-11-19T11:39:57;2.10;;;2.00;;
18140;SDS011;9196;49.194;12.526;2023-11-19T11:42:34;2.70;;;2.60;;
18140;SDS011;9196;49.194;12.526;2023-11-19T11:45:02;2.10;;;1.92;;
18140;SDS011;9196;49.194;12.526;2023-11-19T11:50:54;3.80;;;2.23;;
18140;SDS011;9196;49.194;12.526;2023-11-19T11:53:24;2.13;;;1.92;;
18140;SDS011;9196;49.194;12.526;2023-11-19T11:55:52;2.10;;;2.00;;
18140;SDS011;9196;49.194;12.526;2023-11-19T11:58:20;1.90;;;1.80;;
18140;SDS011;9196;49.194;12.526;2023-11-19T12:00:47;2.07;;;2.00;;
18140;SDS011;9196;49.194;12.526;2023-11-19T12:03:16;2.60;;;2.17;;
18140;SDS011;9196;49.194;12.526;2023-11-19T12:05:47;1.43;;;1.43;;
18140;SDS011;9196;49.194;12.526;2023-11-19T12:08:15;1.70;;;1.63;;
18140;SDS011;9196;49.194;12.526;2023-11-19T12:10:48;2.30;;;1.60;;
18140;SDS011;9196;49.194;12.526;2023-11-19T12:13:16;2.37;;;2.17;;
18140;SDS011;9196;49.194;12.526;2023-11-19T12:18:33;2.00;;;1.90;;
18140;SDS011;9196;49.194;12.526;2023-11-19T12:21:00;1.73;;;1.63;;
18140;SDS011;9196;49.194;12.526;2023-11-19T12:23:28;1.80;;;1.70;;
18140;SDS011;9196;49.194;12.526;2023-11-19T12:25:57;2.83;;;2.20;;
18140;SDS011;9196;49.194;12.526;2023-11-19T12:28:25;2.80;;;2.60;;
18140;SDS011;9196;49.194;12.526;2023-11-19T12:30:52;2.30;;;2.10;;
18140;SDS011;9196;49.194;12.526;2023-11-19T12:33:19;2.60;;;2.40;;
18140;SDS011;9196;49.194;12.526;2023-11-19T12:35:47;1.73;;;1.63;;
18140;SDS011;9196;49.194;12.526;2023-11-19T12:38:18;3.00;;;1.80;;
18140;SDS011;9196;49.194;12.526;2023-11-19T12:40:45;3.27;;;2.00;;
18140;SDS011;9196;49.194;12.526;2023-11-19T12:43:14;1.70;;;1.60;;
18140;SDS011;9196;49.194;12.526;2023-11-19T12:45:48;1.83;;;1.73;;
18140;SDS011;9196;49.194;12.526;2023-11-19T12:48:15;1.50;;;1.40;;
18140;SDS011;9196;49.194;12.526;2023-11-19T12:50:51;3.10;;;2.80;;
18140;SDS011;9196;49.194;12.526;2023-11-19T12:53:19;3.97;;;2.80;;
18140;SDS011;9196;49.194;12.526;2023-11-19T12:55:46;1.30;;;1.30;;
18140;SDS011;9196;49.194;12.526;2023-11-19T13:01:06;1.50;;;1.40;;
18140;SDS011;9196;49.194;12.526;2023-11-19T13:03:35;1.50;;;1.50;;
18140;SDS011;9196;49.194;12.526;2023-11-19T13:06:04;2.83;;;2.53;;
18140;SDS011;9196;49.194;12.526;2023-11-19T13:08:36;2.70;;;1.57;;
18140;SDS011;9196;49.194;12.526;2023-11-19T13:11:04;2.60;;;2.27;;
18140;SDS011;9196;49.194;12.526;2023-11-19T13:13:32;3.77;;;1.50;;
18140;SDS011;9196;49.194;12.526;2023-11-19T13:16:04;2.40;;;1.83;;
18140;SDS011;9196;49.194;12.526;2023-11-19T13:18:34;4.10;;;2.07;;
18140;SDS011;9196;49.194;12.526;2023-11-19T13:21:01;2.40;;;1.50;;
18140;SDS011;9196;49.194;12.526;2023-11-19T13:23:29;2.00;;;1.90;;
18140;SDS011;9196;49.194;12.526;2023-11-19T13:25:56;4.00;;;2.33;;
18140;SDS011;9196;49.194;12.526;2023-11-19T13:28:23;2.40;;;2.20;;
18140;SDS011;9196;49.194;12.526;2023-11-19T13:30:51;3.03;;;2.17;;
18140;SDS011;9196;49.194;12.526;2023-11-19T13:33:21;2.17;;;2.07;;
18140;SDS011;9196;49.194;12.526;2023-11-19T13:35:48;6.53;;;2.50;;
18140;SDS011;9196;49.194;12.526;2023-11-19T13:38:15;3.63;;;3.00;;
18140;SDS011;9196;49.194;12.526;2023-11-19T13:40:42;5.23;;;2.63;;
18140;SDS011;9196;49.194;12.526;2023-11-19T13:43:09;1.77;;;1.70;;
18140;SDS011;9196;49.194;12.526;2023-11-19T13:45:36;1.67;;;1.40;;
18140;SDS011;9196;49.194;12.526;2023-11-19T13:48:05;2.40;;;1.30;;
18140;SDS011;9196;49.194;12.526;2023-11-19T13:50:33;1.57;;;1.47;;
18140;SDS011;9196;49.194;12.526;2023-11-19T13:53:01;1.20;;;1.10;;
18140;SDS011;9196;49.194;12.526;2023-11-19T13:55:29;1.67;;;1.50;;
18140;SDS011;9196;49.194;12.526;2023-11-19T13:57:56;1.50;;;1.40;;
18140;SDS011;9196;49.194;12.526;2023-11-19T14:00:23;2.57;;;2.30;;
18140;SDS011;9196;49.194;12.526;2023-11-19T14:02:50;3.53;;;3.23;;
18140;SDS011;9196;49.194;12.526;2023-11-19T14:05:17;3.30;;;1.93;;
18140;SDS011;9196;49.194;12.526;2023-11-19T14:07:46;2.63;;;1.63;;
18140;SDS011;9196;49.194;12.526;2023-11-19T14:10:13;2.90;;;1.30;;
18140;SDS011;9196;49.194;12.526;2023-11-19T14:12:41;1.30;;;1.20;;
18140;SDS011;9196;49.194;12.526;2023-11-19T14:15:08;6.20;;;2.20;;
18140;SDS011;9196;49.194;12.526;2023-11-19T14:17:37;3.77;;;1.73;;
18140;SDS011;9196;49.194;12.526;2023-11-19T14:20:05;1.63;;;1.53;;
18140;SDS011;9196;49.194;12.526;2023-11-19T14:22:38;5.67;;;2.97;;
18140;SDS011;9196;49.194;12.526;2023-11-19T14:25:07;2.10;;;1.70;;
18140;SDS011;9196;49.194;12.526;2023-11-19T14:27:36;1.80;;;1.30;;
18140;SDS011;9196;49.194;12.526;2023-11-19T14:30:04;4.27;;;2.47;;
18140;SDS011;9196;49.194;12.526;2023-11-19T14:32:33;3.83;;;3.20;;
18140;SDS011;9196;49.194;12.526;2023-11-19T14:34:59;1.63;;;1.53;;
18140;SDS011;9196;49.194;12.526;2023-11-19T14:37:27;1.83;;;1.73;;
18140;SDS011;9196;49.194;12.526;2023-11-19T14:39:54;13.60;;;12.17;;
18140;SDS011;9196;49.194;12.526;2023-11-19T14:42:22;5.97;;;5.47;;
18140;SDS011;9196;49.194;12.526;2023-11-19T14:44:50;8.63;;;7.70;;
18140;SDS011;9196;49.194;12.526;2023-11-19T14:47:17;2.80;;;1.73;;
18140;SDS011;9196;49.194;12.526;2023-11-19T14:49:44;2.20;;;2.10;;
18140;SDS011;9196;49.194;12.526;2023-11-19T14:52:12;1.70;;;1.60;;
18140;SDS011;9196;49.194;12.526;2023-11-19T14:54:39;4.13;;;3.33;;
18140;SDS011;9196;49.194;12.526;2023-11-19T14:57:06;2.17;;;1.97;;
18140;SDS011;9196;49.194;12.526;2023-11-19T14:59:36;3.87;;;3.47;;